sensor_id;sensor_type;location;lat;lon;timestamp;pressure;altitude;pressure_sealevel;temperature;humidity
77240;BME280;66258;53.170;-2.240;2023-10-31T00:00:19;98510.38;;;18.98;100.00
77240;BME280;66258;53.170;-2.240;2023-10-31T00:02:46;98508.75;;;19.02;100.00
77240;BME280;66258;53.170;-2.240;2023-10-31T00:05:16;98508.28;;;19.10;100.00
77240;BME280;66258;53.170;-2.240;2023-10-31T00:07:46;98508.72;;;18.97;100.00
77240;BME280;66258;53.170;-2.240;2023-10-31T00:10:15;98522.19;;;18.99;100.00
77240;BME280;66258;53.170;-2.240;2023-10-31T00:12:42;98521.94;;;19.05;100.00
77240;BME280;66258;53.170;-2.240;2023-10-31T00:15:09;98521.44;;;19.08;100.00
77240;BME280;66258;53.170;-2.240;2023-10-31T00:17:36;98516.50;;;19.10;100.00
77240;BME280;66258;53.170;-2.240;2023-10-31T00:20:04;98518.56;;;18.88;100.00
77240;BME280;66258;53.170;-2.240;2023-10-31T00:22:35;98518.47;;;18.78;100.00
77240;BME280;66258;53.170;-2.240;2023-10-31T00:25:27;98517.28;;;18.64;100.00
77240;BME280;66258;53.170;-2.240;2023-10-31T00:28:19;98521.72;;;18.70;100.00
77240;BME280;66258;53.170;-2.240;2023-10-31T00:30:49;98511.72;;;18.59;100.00
77240;BME280;66258;53.170;-2.240;2023-10-31T00:33:16;98505.53;;;18.41;100.00
77240;BME280;66258;53.170;-2.240;2023-10-31T00:35:43;98510.44;;;18.07;100.00
77240;BME280;66258;53.170;-2.240;2023-10-31T00:38:12;98513.31;;;18.49;100.00
77240;BME280;66258;53.170;-2.240;2023-10-31T00:40:38;98516.00;;;18.44;100.00
77240;BME280;66258;53.170;-2.240;2023-10-31T00:43:05;98510.00;;;18.52;100.00
77240;BME280;66258;53.170;-2.240;2023-10-31T00:45:56;98519.63;;;18.55;100.00
77240;BME280;66258;53.170;-2.240;2023-10-31T00:48:46;98516.97;;;18.60;100.00
77240;BME280;66258;53.170;-2.240;2023-10-31T00:51:13;98511.22;;;18.62;100.00
77240;BME280;66258;53.170;-2.240;2023-10-31T00:53:42;98514.06;;;18.45;100.00
77240;BME280;66258;53.170;-2.240;2023-10-31T00:56:08;98508.28;;;18.41;100.00
77240;BME280;66258;53.170;-2.240;2023-10-31T00:58:39;98509.16;;;18.47;100.00
77240;BME280;66258;53.170;-2.240;2023-10-31T01:01:06;98508.91;;;18.48;100.00
77240;BME280;66258;53.170;-2.240;2023-10-31T01:03:33;98508.66;;;18.55;100.00
77240;BME280;66258;53.170;-2.240;2023-10-31T01:06:26;98510.00;;;18.47;100.00
77240;BME280;66258;53.170;-2.240;2023-10-31T01:08:54;98508.75;;;18.60;100.00
77240;BME280;66258;53.170;-2.240;2023-10-31T01:11:21;98514.38;;;18.48;100.00
77240;BME280;66258;53.170;-2.240;2023-10-31T01:13:47;98513.41;;;18.60;100.00
77240;BME280;66258;53.170;-2.240;2023-10-31T01:16:39;98517.72;;;18.55;100.00
77240;BME280;66258;53.170;-2.240;2023-10-31T01:19:07;98513.81;;;18.46;100.00
77240;BME280;66258;53.170;-2.240;2023-10-31T01:21:37;98508.41;;;18.57;100.00
77240;BME280;66258;53.170;-2.240;2023-10-31T01:24:06;98513.19;;;18.66;100.00
77240;BME280;66258;53.170;-2.240;2023-10-31T01:26:59;98515.34;;;18.64;100.00
77240;BME280;66258;53.170;-2.240;2023-10-31T01:29:29;98511.28;;;18.40;100.00
77240;BME280;66258;53.170;-2.240;2023-10-31T01:31:57;98511.66;;;18.53;100.00
77240;BME280;66258;53.170;-2.240;2023-10-31T01:34:28;98517.16;;;18.53;100.00
77240;BME280;66258;53.170;-2.240;2023-10-31T01:37:20;98514.56;;;18.69;100.00
77240;BME280;66258;53.170;-2.240;2023-10-31T01:39:49;98524.25;;;18.49;100.00
77240;BME280;66258;53.170;-2.240;2023-10-31T01:42:17;98517.91;;;18.44;100.00
77240;BME280;66258;53.170;-2.240;2023-10-31T01:44:44;98517.44;;;18.57;100.00
77240;BME280;66258;53.170;-2.240;2023-10-31T01:47:11;98518.16;;;18.42;100.00
77240;BME280;66258;53.170;-2.240;2023-10-31T01:49:39;98509.31;;;18.35;100.00
77240;BME280;66258;53.170;-2.240;2023-10-31T01:52:06;98519.28;;;18.46;100.00
77240;BME280;66258;53.170;-2.240;2023-10-31T01:54:33;98519.25;;;18.41;100.00
77240;BME280;66258;53.170;-2.240;2023-10-31T01:57:04;98512.94;;;18.41;100.00
77240;BME280;66258;53.170;-2.240;2023-10-31T01:59:32;98512.25;;;18.24;100.00
77240;BME280;66258;53.170;-2.240;2023-10-31T02:02:00;98516.06;;;17.96;100.00
77240;BME280;66258;53.170;-2.240;2023-10-31T02:04:27;98508.94;;;17.95;100.00
77240;BME280;66258;53.170;-2.240;2023-10-31T02:06:55;98507.41;;;18.09;100.00
77240;BME280;66258;53.170;-2.240;2023-10-31T02:09:46;98511.53;;;18.06;100.00
77240;BME280;66258;53.170;-2.240;2023-10-31T02:12:33;98505.88;;;18.18;100.00
77240;BME280;66258;53.170;-2.240;2023-10-31T02:15:01;98508.66;;;18.23;100.00
77240;BME280;66258;53.170;-2.240;2023-10-31T02:17:28;98511.72;;;18.27;100.00
77240;BME280;66258;53.170;-2.240;2023-10-31T02:19:57;98502.38;;;18.23;100.00
77240;BME280;66258;53.170;-2.240;2023-10-31T02:22:25;98503.06;;;18.08;100.00
77240;BME280;66258;53.170;-2.240;2023-10-31T02:25:16;98505.56;;;18.14;100.00
77240;BME280;66258;53.170;-2.240;2023-10-31T02:27:44;98502.31;;;18.17;100.00
77240;BME280;66258;53.170;-2.240;2023-10-31T02:30:12;98506.41;;;18.15;100.00
77240;BME280;66258;53.170;-2.240;2023-10-31T02:32:39;98500.09;;;18.14;100.00
77240;BME280;66258;53.170;-2.240;2023-10-31T02:35:09;98499.31;;;18.19;100.00
77240;BME280;66258;53.170;-2.240;2023-10-31T02:37:40;98489.44;;;18.18;100.00
77240;BME280;66258;53.170;-2.240;2023-10-31T02:40:09;98497.22;;;17.99;100.00
77240;BME280;66258;53.170;-2.240;2023-10-31T02:42:39;98489.38;;;18.08;100.00
77240;BME280;66258;53.170;-2.240;2023-10-31T02:45:06;98499.44;;;18.02;100.00
77240;BME280;66258;53.170;-2.240;2023-10-31T02:47:34;98493.84;;;18.19;100.00
77240;BME280;66258;53.170;-2.240;2023-10-31T02:50:01;98486.19;;;18.21;100.00
77240;BME280;66258;53.170;-2.240;2023-10-31T02:52:30;98490.31;;;18.24;100.00
77240;BME280;66258;53.170;-2.240;2023-10-31T02:54:59;98484.84;;;18.24;100.00
77240;BME280;66258;53.170;-2.240;2023-10-31T02:57:26;98488.69;;;18.23;100.00
77240;BME280;66258;53.170;-2.240;2023-10-31T02:59:53;98484.53;;;18.20;100.00
77240;BME280;66258;53.170;-2.240;2023-10-31T03:02:20;98491.50;;;18.33;100.00
77240;BME280;66258;53.170;-2.240;2023-10-31T03:04:47;98496.94;;;18.28;100.00
77240;BME280;66258;53.170;-2.240;2023-10-31T03:07:14;98488.03;;;18.42;100.00
77240;BME280;66258;53.170;-2.240;2023-10-31T03:09:41;98505.28;;;18.43;100.00
77240;BME280;66258;53.170;-2.240;2023-10-31T03:12:13;98502.69;;;18.26;100.00
77240;BME280;66258;53.170;-2.240;2023-10-31T03:14:40;98509.88;;;18.37;100.00
77240;BME280;66258;53.170;-2.240;2023-10-31T03:17:07;98495.28;;;18.27;100.00
77240;BME280;66258;53.170;-2.240;2023-10-31T03:19:34;98498.06;;;18.32;100.00
77240;BME280;66258;53.170;-2.240;2023-10-31T03:22:01;98501.84;;;18.58;100.00
77240;BME280;66258;53.170;-2.240;2023-10-31T03:24:31;98502.34;;;18.54;100.00
77240;BME280;66258;53.170;-2.240;2023-10-31T03:26:58;98508.91;;;18.53;100.00
77240;BME280;66258;53.170;-2.240;2023-10-31T03:29:26;98506.56;;;18.62;100.00
77240;BME280;66258;53.170;-2.240;2023-10-31T03:31:53;98508.84;;;18.70;100.00
77240;BME280;66258;53.170;-2.240;2023-10-31T03:34:20;98504.97;;;18.71;100.00
77240;BME280;66258;53.170;-2.240;2023-10-31T03:36:47;98504.50;;;18.79;100.00
77240;BME280;66258;53.170;-2.240;2023-10-31T03:39:38;98505.28;;;18.75;100.00
77240;BME280;66258;53.170;-2.240;2023-10-31T03:42:05;98502.47;;;18.65;100.00
77240;BME280;66258;53.170;-2.240;2023-10-31T03:44:33;98504.84;;;18.56;100.00
77240;BME280;66258;53.170;-2.240;2023-10-31T03:47:00;98500.53;;;18.60;100.00
77240;BME280;66258;53.170;-2.240;2023-10-31T03:49:50;98506.63;;;18.67;100.00
77240;BME280;66258;53.170;-2.240;2023-10-31T03:52:41;98505.41;;;18.58;100.00
77240;BME280;66258;53.170;-2.240;2023-10-31T03:55:09;98501.84;;;18.58;100.00
77240;BME280;66258;53.170;-2.240;2023-10-31T03:57:37;98504.28;;;18.54;100.00
77240;BME280;66258;53.170;-2.240;2023-10-31T04:00:07;98510.97;;;18.36;100.00
77240;BME280;66258;53.170;-2.240;2023-10-31T04:02:37;98511.06;;;18.46;100.00
77240;BME280;66258;53.170;-2.240;2023-10-31T04:05:06;98517.94;;;18.49;100.00
77240;BME280;66258;53.170;-2.240;2023-10-31T04:07:33;98526.16;;;18.49;100.00
77240;BME280;66258;53.170;-2.240;2023-10-31T04:10:00;98517.97;;;18.54;100.00
77240;BME280;66258;53.170;-2.240;2023-10-31T04:12:28;98520.97;;;18.52;100.00
77240;BME280;66258;53.170;-2.240;2023-10-31T04:14:55;98524.78;;;18.51;100.00
77240;BME280;66258;53.170;-2.240;2023-10-31T04:17:25;98519.56;;;18.50;100.00
77240;BME280;66258;53.170;-2.240;2023-10-31T04:19:52;98522.63;;;18.53;100.00
77240;BME280;66258;53.170;-2.240;2023-10-31T04:22:23;98527.59;;;18.57;100.00
77240;BME280;66258;53.170;-2.240;2023-10-31T04:24:51;98518.28;;;18.58;100.00
77240;BME280;66258;53.170;-2.240;2023-10-31T04:27:18;98528.94;;;18.54;100.00
77240;BME280;66258;53.170;-2.240;2023-10-31T04:29:45;98523.59;;;18.64;100.00
77240;BME280;66258;53.170;-2.240;2023-10-31T04:32:12;98525.75;;;18.62;100.00
77240;BME280;66258;53.170;-2.240;2023-10-31T04:34:43;98527.31;;;18.58;100.00
77240;BME280;66258;53.170;-2.240;2023-10-31T04:37:10;98530.53;;;18.77;100.00
77240;BME280;66258;53.170;-2.240;2023-10-31T04:39:38;98538.16;;;18.70;100.00
77240;BME280;66258;53.170;-2.240;2023-10-31T04:42:05;98544.28;;;18.82;100.00
77240;BME280;66258;53.170;-2.240;2023-10-31T04:44:34;98545.91;;;18.83;100.00
77240;BME280;66258;53.170;-2.240;2023-10-31T04:47:04;98550.28;;;18.79;100.00
77240;BME280;66258;53.170;-2.240;2023-10-31T04:49:34;98547.78;;;18.77;100.00
77240;BME280;66258;53.170;-2.240;2023-10-31T04:52:03;98546.91;;;18.72;100.00
77240;BME280;66258;53.170;-2.240;2023-10-31T04:54:30;98554.88;;;18.73;100.00
77240;BME280;66258;53.170;-2.240;2023-10-31T04:56:57;98547.59;;;18.57;100.00
77240;BME280;66258;53.170;-2.240;2023-10-31T04:59:25;98541.78;;;18.48;100.00
77240;BME280;66258;53.170;-2.240;2023-10-31T05:01:52;98544.97;;;18.40;100.00
77240;BME280;66258;53.170;-2.240;2023-10-31T05:04:19;98537.47;;;18.26;100.00
77240;BME280;66258;53.170;-2.240;2023-10-31T05:06:47;98538.16;;;18.43;100.00
77240;BME280;66258;53.170;-2.240;2023-10-31T05:09:15;98527.91;;;18.33;100.00
77240;BME280;66258;53.170;-2.240;2023-10-31T05:11:43;98530.47;;;18.40;100.00
77240;BME280;66258;53.170;-2.240;2023-10-31T05:14:10;98518.47;;;18.46;100.00
77240;BME280;66258;53.170;-2.240;2023-10-31T05:16:41;98528.25;;;18.37;100.00
77240;BME280;66258;53.170;-2.240;2023-10-31T05:19:08;98529.38;;;18.14;100.00
77240;BME280;66258;53.170;-2.240;2023-10-31T05:21:35;98529.25;;;18.26;100.00
77240;BME280;66258;53.170;-2.240;2023-10-31T05:24:06;98528.31;;;18.15;100.00
77240;BME280;66258;53.170;-2.240;2023-10-31T05:26:37;98533.31;;;18.23;100.00
77240;BME280;66258;53.170;-2.240;2023-10-31T05:29:10;98538.53;;;18.25;100.00
77240;BME280;66258;53.170;-2.240;2023-10-31T05:31:37;98533.63;;;18.27;100.00
77240;BME280;66258;53.170;-2.240;2023-10-31T05:34:04;98531.22;;;18.35;100.00
77240;BME280;66258;53.170;-2.240;2023-10-31T05:36:54;98533.41;;;18.33;100.00
77240;BME280;66258;53.170;-2.240;2023-10-31T05:39:21;98534.22;;;18.34;100.00
77240;BME280;66258;53.170;-2.240;2023-10-31T05:41:50;98543.59;;;18.38;100.00
77240;BME280;66258;53.170;-2.240;2023-10-31T05:44:17;98543.13;;;18.19;100.00
77240;BME280;66258;53.170;-2.240;2023-10-31T05:46:45;98531.88;;;18.15;100.00
77240;BME280;66258;53.170;-2.240;2023-10-31T05:49:11;98534.59;;;18.15;100.00
77240;BME280;66258;53.170;-2.240;2023-10-31T05:51:38;98532.44;;;18.17;100.00
77240;BME280;66258;53.170;-2.240;2023-10-31T05:54:07;98548.81;;;18.12;100.00
77240;BME280;66258;53.170;-2.240;2023-10-31T05:56:37;98542.19;;;18.08;100.00
77240;BME280;66258;53.170;-2.240;2023-10-31T05:59:05;98538.53;;;18.25;100.00
77240;BME280;66258;53.170;-2.240;2023-10-31T06:01:34;98542.63;;;18.22;100.00
77240;BME280;66258;53.170;-2.240;2023-10-31T06:04:01;98546.28;;;18.33;100.00
77240;BME280;66258;53.170;-2.240;2023-10-31T06:06:30;98544.97;;;18.40;100.00
77240;BME280;66258;53.170;-2.240;2023-10-31T06:08:56;98551.59;;;18.44;100.00
77240;BME280;66258;53.170;-2.240;2023-10-31T06:11:23;98561.66;;;18.12;100.00
77240;BME280;66258;53.170;-2.240;2023-10-31T06:13:50;98554.97;;;18.25;100.00
77240;BME280;66258;53.170;-2.240;2023-10-31T06:16:19;98558.69;;;18.40;100.00
77240;BME280;66258;53.170;-2.240;2023-10-31T06:18:48;98562.63;;;18.49;100.00
77240;BME280;66258;53.170;-2.240;2023-10-31T06:21:15;98557.41;;;18.53;100.00
77240;BME280;66258;53.170;-2.240;2023-10-31T06:23:42;98569.09;;;18.65;100.00
77240;BME280;66258;53.170;-2.240;2023-10-31T06:26:09;98567.75;;;18.68;100.00
77240;BME280;66258;53.170;-2.240;2023-10-31T06:28:37;98567.75;;;18.68;100.00
77240;BME280;66258;53.170;-2.240;2023-10-31T06:31:13;98570.25;;;18.74;100.00
77240;BME280;66258;53.170;-2.240;2023-10-31T06:33:42;98575.97;;;18.68;100.00
77240;BME280;66258;53.170;-2.240;2023-10-31T06:36:09;98581.31;;;18.58;100.00
77240;BME280;66258;53.170;-2.240;2023-10-31T06:38:36;98577.34;;;18.70;100.00
77240;BME280;66258;53.170;-2.240;2023-10-31T06:41:03;98580.97;;;18.49;100.00
77240;BME280;66258;53.170;-2.240;2023-10-31T06:43:31;98586.06;;;18.40;100.00
77240;BME280;66258;53.170;-2.240;2023-10-31T06:46:01;98587.00;;;18.24;100.00
77240;BME280;66258;53.170;-2.240;2023-10-31T06:48:27;98583.03;;;18.37;100.00
77240;BME280;66258;53.170;-2.240;2023-10-31T06:50:56;98586.13;;;18.18;100.00
77240;BME280;66258;53.170;-2.240;2023-10-31T06:53:23;98588.88;;;18.18;100.00
77240;BME280;66258;53.170;-2.240;2023-10-31T06:55:50;98593.56;;;18.23;100.00
77240;BME280;66258;53.170;-2.240;2023-10-31T06:58:18;98595.88;;;18.36;100.00
77240;BME280;66258;53.170;-2.240;2023-10-31T07:00:44;98595.69;;;18.43;100.00
77240;BME280;66258;53.170;-2.240;2023-10-31T07:03:12;98599.78;;;18.40;100.00
77240;BME280;66258;53.170;-2.240;2023-10-31T07:06:06;98601.44;;;18.41;100.00
77240;BME280;66258;53.170;-2.240;2023-10-31T07:08:34;98612.53;;;18.57;100.00
77240;BME280;66258;53.170;-2.240;2023-10-31T07:11:03;98608.00;;;18.40;100.00
77240;BME280;66258;53.170;-2.240;2023-10-31T07:13:30;98606.47;;;18.54;100.00
77240;BME280;66258;53.170;-2.240;2023-10-31T07:15:59;98614.28;;;18.41;100.00
77240;BME280;66258;53.170;-2.240;2023-10-31T07:18:26;98613.09;;;18.59;100.00
77240;BME280;66258;53.170;-2.240;2023-10-31T07:20:53;98621.25;;;18.53;100.00
77240;BME280;66258;53.170;-2.240;2023-10-31T07:23:45;98627.06;;;18.57;100.00
77240;BME280;66258;53.170;-2.240;2023-10-31T07:26:12;98630.78;;;18.68;100.00
77240;BME280;66258;53.170;-2.240;2023-10-31T07:28:39;98643.16;;;18.75;100.00
77240;BME280;66258;53.170;-2.240;2023-10-31T07:31:06;98636.03;;;18.74;100.00
77240;BME280;66258;53.170;-2.240;2023-10-31T07:33:33;98642.81;;;18.67;100.00
77240;BME280;66258;53.170;-2.240;2023-10-31T07:36:01;98648.31;;;18.72;100.00
77240;BME280;66258;53.170;-2.240;2023-10-31T07:38:28;98645.66;;;18.77;100.00
77240;BME280;66258;53.170;-2.240;2023-10-31T07:40:57;98653.78;;;18.67;100.00
77240;BME280;66258;53.170;-2.240;2023-10-31T07:43:24;98654.75;;;18.82;100.00
77240;BME280;66258;53.170;-2.240;2023-10-31T07:45:51;98652.31;;;18.86;100.00
77240;BME280;66258;53.170;-2.240;2023-10-31T07:48:42;98652.53;;;18.79;100.00
77240;BME280;66258;53.170;-2.240;2023-10-31T07:51:09;98657.28;;;18.89;100.00
77240;BME280;66258;53.170;-2.240;2023-10-31T07:53:36;98653.41;;;18.85;100.00
77240;BME280;66258;53.170;-2.240;2023-10-31T07:56:05;98655.97;;;18.97;100.00
77240;BME280;66258;53.170;-2.240;2023-10-31T07:59:04;98651.16;;;19.09;100.00
77240;BME280;66258;53.170;-2.240;2023-10-31T08:01:55;98657.22;;;19.16;100.00
77240;BME280;66258;53.170;-2.240;2023-10-31T08:04:22;98659.28;;;19.31;100.00
77240;BME280;66258;53.170;-2.240;2023-10-31T08:06:50;98670.31;;;19.41;100.00
77240;BME280;66258;53.170;-2.240;2023-10-31T08:09:17;98659.28;;;19.31;100.00
77240;BME280;66258;53.170;-2.240;2023-10-31T08:11:46;98662.28;;;19.29;100.00
77240;BME280;66258;53.170;-2.240;2023-10-31T08:14:12;98656.78;;;19.29;100.00
77240;BME280;66258;53.170;-2.240;2023-10-31T08:16:39;98653.84;;;19.41;100.00
77240;BME280;66258;53.170;-2.240;2023-10-31T08:19:06;98658.38;;;19.57;100.00
77240;BME280;66258;53.170;-2.240;2023-10-31T08:21:33;98655.53;;;19.47;100.00
77240;BME280;66258;53.170;-2.240;2023-10-31T08:24:01;98654.88;;;19.67;100.00
77240;BME280;66258;53.170;-2.240;2023-10-31T08:26:28;98662.28;;;19.66;100.00
77240;BME280;66258;53.170;-2.240;2023-10-31T08:28:56;98662.88;;;19.78;100.00
77240;BME280;66258;53.170;-2.240;2023-10-31T08:31:23;98662.44;;;19.97;100.00
77240;BME280;66258;53.170;-2.240;2023-10-31T08:33:50;98672.50;;;19.81;100.00
77240;BME280;66258;53.170;-2.240;2023-10-31T08:36:17;98675.81;;;19.83;100.00
77240;BME280;66258;53.170;-2.240;2023-10-31T08:38:44;98671.81;;;19.59;100.00
77240;BME280;66258;53.170;-2.240;2023-10-31T08:41:11;98672.47;;;19.76;100.00
77240;BME280;66258;53.170;-2.240;2023-10-31T08:43:38;98676.84;;;19.67;100.00
77240;BME280;66258;53.170;-2.240;2023-10-31T08:46:07;98679.03;;;19.70;100.00
77240;BME280;66258;53.170;-2.240;2023-10-31T08:48:34;98682.19;;;19.88;100.00
77240;BME280;66258;53.170;-2.240;2023-10-31T08:51:01;98687.06;;;19.81;100.00
77240;BME280;66258;53.170;-2.240;2023-10-31T08:53:52;98680.31;;;20.04;100.00
77240;BME280;66258;53.170;-2.240;2023-10-31T08:56:43;98689.44;;;20.20;100.00
77240;BME280;66258;53.170;-2.240;2023-10-31T08:59:10;98691.09;;;20.16;100.00
77240;BME280;66258;53.170;-2.240;2023-10-31T09:01:39;98697.41;;;20.11;100.00
77240;BME280;66258;53.170;-2.240;2023-10-31T09:04:05;98686.41;;;20.11;100.00
77240;BME280;66258;53.170;-2.240;2023-10-31T09:06:32;98694.38;;;20.13;100.00
77240;BME280;66258;53.170;-2.240;2023-10-31T09:09:24;98695.94;;;19.94;100.00
77240;BME280;66258;53.170;-2.240;2023-10-31T09:12:15;98701.22;;;20.05;100.00
77240;BME280;66258;53.170;-2.240;2023-10-31T09:14:42;98700.34;;;19.95;100.00
77240;BME280;66258;53.170;-2.240;2023-10-31T09:17:11;98705.00;;;19.94;100.00
77240;BME280;66258;53.170;-2.240;2023-10-31T09:19:38;98702.78;;;19.91;100.00
77240;BME280;66258;53.170;-2.240;2023-10-31T09:22:06;98715.53;;;20.12;100.00
77240;BME280;66258;53.170;-2.240;2023-10-31T09:24:33;98706.75;;;20.20;100.00
77240;BME280;66258;53.170;-2.240;2023-10-31T09:27:00;98715.53;;;20.17;100.00
77240;BME280;66258;53.170;-2.240;2023-10-31T09:29:28;98704.09;;;20.36;100.00
77240;BME280;66258;53.170;-2.240;2023-10-31T09:31:57;98702.22;;;20.41;100.00
77240;BME280;66258;53.170;-2.240;2023-10-31T09:34:26;98707.75;;;20.51;100.00
77240;BME280;66258;53.170;-2.240;2023-10-31T09:36:53;98704.59;;;20.28;100.00
77240;BME280;66258;53.170;-2.240;2023-10-31T09:39:21;98701.88;;;20.28;100.00
77240;BME280;66258;53.170;-2.240;2023-10-31T09:41:48;98705.44;;;20.28;100.00
77240;BME280;66258;53.170;-2.240;2023-10-31T09:44:21;98708.78;;;20.35;100.00
77240;BME280;66258;53.170;-2.240;2023-10-31T09:46:49;98697.25;;;20.38;100.00
77240;BME280;66258;53.170;-2.240;2023-10-31T09:49:16;98707.47;;;20.48;100.00
77240;BME280;66258;53.170;-2.240;2023-10-31T09:51:46;98706.13;;;20.61;100.00
77240;BME280;66258;53.170;-2.240;2023-10-31T09:54:14;98708.09;;;20.75;100.00
77240;BME280;66258;53.170;-2.240;2023-10-31T09:56:43;98713.84;;;20.79;100.00
77240;BME280;66258;53.170;-2.240;2023-10-31T09:59:10;98712.72;;;20.65;100.00
77240;BME280;66258;53.170;-2.240;2023-10-31T10:01:37;98711.66;;;20.71;100.00
77240;BME280;66258;53.170;-2.240;2023-10-31T10:04:05;98719.94;;;20.76;100.00
77240;BME280;66258;53.170;-2.240;2023-10-31T10:06:33;98712.22;;;20.83;100.00
77240;BME280;66258;53.170;-2.240;2023-10-31T10:09:01;98718.59;;;20.93;100.00
77240;BME280;66258;53.170;-2.240;2023-10-31T10:11:31;98714.72;;;20.84;100.00
77240;BME280;66258;53.170;-2.240;2023-10-31T10:13:58;98728.44;;;20.74;100.00
77240;BME280;66258;53.170;-2.240;2023-10-31T10:16:30;98725.91;;;20.63;100.00
77240;BME280;66258;53.170;-2.240;2023-10-31T10:18:57;98730.84;;;20.61;100.00
77240;BME280;66258;53.170;-2.240;2023-10-31T10:21:24;98733.34;;;20.62;100.00
77240;BME280;66258;53.170;-2.240;2023-10-31T10:23:51;98727.84;;;20.62;100.00
77240;BME280;66258;53.170;-2.240;2023-10-31T10:26:21;98741.38;;;20.74;100.00
77240;BME280;66258;53.170;-2.240;2023-10-31T10:28:48;98735.06;;;20.78;100.00
77240;BME280;66258;53.170;-2.240;2023-10-31T10:31:15;98740.84;;;20.92;100.00
77240;BME280;66258;53.170;-2.240;2023-10-31T10:33:42;98733.97;;;20.84;100.00
77240;BME280;66258;53.170;-2.240;2023-10-31T10:36:11;98732.31;;;20.78;100.00
77240;BME280;66258;53.170;-2.240;2023-10-31T10:38:41;98735.91;;;21.04;100.00
77240;BME280;66258;53.170;-2.240;2023-10-31T10:41:17;98732.94;;;21.41;100.00
77240;BME280;66258;53.170;-2.240;2023-10-31T10:43:50;98733.25;;;21.55;100.00
77240;BME280;66258;53.170;-2.240;2023-10-31T10:46:22;98734.31;;;21.74;100.00
77240;BME280;66258;53.170;-2.240;2023-10-31T10:48:56;98742.84;;;21.68;100.00
77240;BME280;66258;53.170;-2.240;2023-10-31T10:51:29;98734.63;;;21.57;100.00
77240;BME280;66258;53.170;-2.240;2023-10-31T10:54:15;98743.97;;;21.72;100.00
77240;BME280;66258;53.170;-2.240;2023-10-31T10:56:46;98742.00;;;21.87;100.00
77240;BME280;66258;53.170;-2.240;2023-10-31T10:59:20;98746.41;;;21.83;100.00
77240;BME280;66258;53.170;-2.240;2023-10-31T11:01:51;98744.25;;;21.80;100.00
77240;BME280;66258;53.170;-2.240;2023-10-31T11:04:20;98747.53;;;21.77;100.00
77240;BME280;66258;53.170;-2.240;2023-10-31T11:06:48;98745.34;;;21.49;100.00
77240;BME280;66258;53.170;-2.240;2023-10-31T11:09:39;98738.75;;;21.55;100.00
77240;BME280;66258;53.170;-2.240;2023-10-31T11:12:08;98732.97;;;21.51;100.00
77240;BME280;66258;53.170;-2.240;2023-10-31T11:14:39;98739.81;;;21.69;100.00
77240;BME280;66258;53.170;-2.240;2023-10-31T11:17:16;98740.09;;;21.73;100.00
77240;BME280;66258;53.170;-2.240;2023-10-31T11:19:47;98743.41;;;21.70;100.00
77240;BME280;66258;53.170;-2.240;2023-10-31T11:22:17;98738.19;;;21.53;100.00
77240;BME280;66258;53.170;-2.240;2023-10-31T11:24:44;98741.47;;;21.45;100.00
77240;BME280;66258;53.170;-2.240;2023-10-31T11:27:13;98733.53;;;21.38;100.00
77240;BME280;66258;53.170;-2.240;2023-10-31T11:30:08;98737.94;;;21.59;100.00
77240;BME280;66258;53.170;-2.240;2023-10-31T11:32:47;98733.25;;;21.60;100.00
77240;BME280;66258;53.170;-2.240;2023-10-31T11:35:18;98729.91;;;21.73;100.00
77240;BME280;66258;53.170;-2.240;2023-10-31T11:37:49;98739.53;;;21.96;100.00
77240;BME280;66258;53.170;-2.240;2023-10-31T11:40:23;98738.94;;;22.19;100.00
77240;BME280;66258;53.170;-2.240;2023-10-31T11:42:51;98749.69;;;22.16;100.00
77240;BME280;66258;53.170;-2.240;2023-10-31T11:45:42;98740.66;;;22.00;100.00
77240;BME280;66258;53.170;-2.240;2023-10-31T11:48:10;98745.03;;;21.96;100.00
77240;BME280;66258;53.170;-2.240;2023-10-31T11:50:38;98742.00;;;21.98;100.00
77240;BME280;66258;53.170;-2.240;2023-10-31T11:53:06;98750.53;;;22.21;100.00
77240;BME280;66258;53.170;-2.240;2023-10-31T11:55:48;98754.34;;;22.25;100.00
77240;BME280;66258;53.170;-2.240;2023-10-31T11:58:16;98748.59;;;22.22;100.00
77240;BME280;66258;53.170;-2.240;2023-10-31T12:01:10;98755.75;;;22.23;100.00
77240;BME280;66258;53.170;-2.240;2023-10-31T12:04:00;98759.03;;;22.25;100.00
77240;BME280;66258;53.170;-2.240;2023-10-31T12:06:33;98761.81;;;22.20;100.00
77240;BME280;66258;53.170;-2.240;2023-10-31T12:09:01;98767.34;;;22.10;100.00
77240;BME280;66258;53.170;-2.240;2023-10-31T12:11:29;98755.47;;;22.19;100.00
77240;BME280;66258;53.170;-2.240;2023-10-31T12:13:57;98759.06;;;22.15;100.00
77240;BME280;66258;53.170;-2.240;2023-10-31T12:16:30;98761.84;;;22.00;100.00
77240;BME280;66258;53.170;-2.240;2023-10-31T12:18:59;98761.84;;;21.89;100.00
77240;BME280;66258;53.170;-2.240;2023-10-31T12:21:36;98771.47;;;21.92;100.00
77240;BME280;66258;53.170;-2.240;2023-10-31T12:24:27;98773.97;;;21.78;100.00
77240;BME280;66258;53.170;-2.240;2023-10-31T12:27:00;98773.72;;;21.80;100.00
77240;BME280;66258;53.170;-2.240;2023-10-31T12:29:27;98772.31;;;21.67;100.00
77240;BME280;66258;53.170;-2.240;2023-10-31T12:31:56;98769.84;;;21.50;100.00
77240;BME280;66258;53.170;-2.240;2023-10-31T12:34:24;98774.81;;;21.74;100.00
77240;BME280;66258;53.170;-2.240;2023-10-31T12:36:52;98777.28;;;21.80;100.00
77240;BME280;66258;53.170;-2.240;2023-10-31T12:39:24;98780.84;;;21.71;99.60
77240;BME280;66258;53.170;-2.240;2023-10-31T12:41:53;98780.31;;;21.69;99.80
77240;BME280;66258;53.170;-2.240;2023-10-31T12:44:23;98781.97;;;21.75;100.00
77240;BME280;66258;53.170;-2.240;2023-10-31T12:46:51;98780.88;;;21.81;99.71
77240;BME280;66258;53.170;-2.240;2023-10-31T12:49:20;98786.63;;;21.89;100.00
77240;BME280;66258;53.170;-2.240;2023-10-31T12:51:58;98782.78;;;21.90;99.55
77240;BME280;66258;53.170;-2.240;2023-10-31T12:54:27;98784.16;;;22.13;100.00
77240;BME280;66258;53.170;-2.240;2023-10-31T12:56:59;98781.06;;;22.40;99.78